createdAt,value
2022-10-06T20:58:55.027Z,8.90
2022-10-06T21:01:22.408Z,9.00
2022-10-06T21:03:54.510Z,8.90
2022-10-06T21:06:23.700Z,8.90
2022-10-06T21:08:51.505Z,8.80
2022-10-06T21:11:20.899Z,8.70
2022-10-06T21:13:54.230Z,8.70
2022-10-06T21:16:32.856Z,8.70
2022-10-06T21:19:01.809Z,8.60
2022-10-06T21:21:28.488Z,8.60
2022-10-06T21:23:55.125Z,8.50
2022-10-06T21:26:23.794Z,8.50
2022-10-06T21:28:53.533Z,8.40
2022-10-06T21:31:25.837Z,8.40
2022-10-06T21:33:54.269Z,8.40
2022-10-06T21:36:26.015Z,8.50
2022-10-06T21:38:53.885Z,8.50
2022-10-06T21:41:32.484Z,8.50
2022-10-06T21:44:03.656Z,8.40
2022-10-06T21:46:33.287Z,8.40
2022-10-06T21:49:01.140Z,8.30
2022-10-06T21:51:29.639Z,8.30
2022-10-06T21:53:57.489Z,8.20
2022-10-06T21:56:25.248Z,8.20
2022-10-06T21:58:53.856Z,8.10
2022-10-06T22:01:23.518Z,8.10
2022-10-06T22:03:50.688Z,8.10
2022-10-06T22:06:19.651Z,8.10
2022-10-06T22:08:46.895Z,8.10
2022-10-06T22:11:24.392Z,8.00
2022-10-06T22:13:54.351Z,8.00
2022-10-06T22:16:23.659Z,8.00
2022-10-06T22:18:50.429Z,8.00
2022-10-06T22:21:21.276Z,8.00
2022-10-06T22:23:54.479Z,8.10
2022-10-06T22:26:21.140Z,8.10
2022-10-06T22:28:50.515Z,8.20
2022-10-06T22:31:20.944Z,8.30
2022-10-06T22:33:53.934Z,8.40
2022-10-06T22:36:20.575Z,8.30
2022-10-06T22:38:47.450Z,8.30
2022-10-06T22:41:14.700Z,8.30
2022-10-06T22:43:41.383Z,8.30
2022-10-06T22:46:09.190Z,8.40
2022-10-06T22:48:36.202Z,8.40
2022-10-06T22:51:03.378Z,8.40
2022-10-06T22:53:31.192Z,8.30
2022-10-06T22:55:59.137Z,8.20
2022-10-06T22:58:26.371Z,8.10
2022-10-06T23:00:53.599Z,8.00
2022-10-06T23:03:20.917Z,8.00
2022-10-06T23:05:59.185Z,7.90
2022-10-06T23:08:29.054Z,7.80
2022-10-06T23:11:08.266Z,7.80
2022-10-06T23:13:35.188Z,7.70
2022-10-06T23:16:07.339Z,7.70
2022-10-06T23:18:35.786Z,7.70
2022-10-06T23:21:22.189Z,7.60
2022-10-06T23:23:54.510Z,8.00
2022-10-06T23:26:22.670Z,8.10
2022-10-06T23:28:55.121Z,8.00
2022-10-06T23:31:22.305Z,8.00
2022-10-06T23:33:49.205Z,7.90
2022-10-06T23:36:15.923Z,7.80
2022-10-06T23:38:42.642Z,7.70
2022-10-06T23:41:09.344Z,7.70
2022-10-06T23:43:36.233Z,7.60
2022-10-06T23:46:03.821Z,7.60
2022-10-06T23:48:30.715Z,7.60
2022-10-06T23:51:06.403Z,7.70
2022-10-06T23:53:34.333Z,7.80
2022-10-06T23:56:00.992Z,7.90
2022-10-06T23:58:28.326Z,8.00
